sensor_id;sensor_type;location;lat;lon;timestamp;P1;durP1;ratioP1;P2;durP2;ratioP2
25567;SDS011;13455;51.480;7.594;2023-09-19T00:00:43;8.95;;;2.20;;
25567;SDS011;13455;51.480;7.594;2023-09-19T00:03:11;11.73;;;2.10;;
25567;SDS011;13455;51.480;7.594;2023-09-19T00:05:37;10.10;;;2.20;;
25567;SDS011;13455;51.480;7.594;2023-09-19T00:08:04;8.85;;;2.30;;
25567;SDS011;13455;51.480;7.594;2023-09-19T00:10:31;9.60;;;2.30;;
25567;SDS011;13455;51.480;7.594;2023-09-19T00:13:00;7.88;;;2.10;;
25567;SDS011;13455;51.480;7.594;2023-09-19T00:15:30;7.47;;;2.28;;
25567;SDS011;13455;51.480;7.594;2023-09-19T00:18:00;7.93;;;2.28;;
25567;SDS011;13455;51.480;7.594;2023-09-19T00:20:26;10.05;;;2.63;;
25567;SDS011;13455;51.480;7.594;2023-09-19T00:22:53;10.93;;;2.75;;
25567;SDS011;13455;51.480;7.594;2023-09-19T00:25:19;11.02;;;2.55;;
25567;SDS011;13455;51.480;7.594;2023-09-19T00:27:45;9.55;;;2.53;;
25567;SDS011;13455;51.480;7.594;2023-09-19T00:30:14;8.00;;;2.30;;
25567;SDS011;13455;51.480;7.594;2023-09-19T00:32:46;7.13;;;2.35;;
25567;SDS011;13455;51.480;7.594;2023-09-19T00:35:13;7.80;;;2.55;;
25567;SDS011;13455;51.480;7.594;2023-09-19T00:37:42;8.35;;;2.50;;
25567;SDS011;13455;51.480;7.594;2023-09-19T00:40:08;10.93;;;2.30;;
25567;SDS011;13455;51.480;7.594;2023-09-19T00:42:40;9.23;;;2.72;;
25567;SDS011;13455;51.480;7.594;2023-09-19T00:45:09;9.27;;;2.30;;
25567;SDS011;13455;51.480;7.594;2023-09-19T00:47:45;10.88;;;2.60;;
25567;SDS011;13455;51.480;7.594;2023-09-19T00:50:19;9.27;;;2.25;;
25567;SDS011;13455;51.480;7.594;2023-09-19T00:52:48;10.43;;;2.58;;
25567;SDS011;13455;51.480;7.594;2023-09-19T00:55:15;9.18;;;2.42;;
25567;SDS011;13455;51.480;7.594;2023-09-19T00:57:41;10.23;;;2.28;;
25567;SDS011;13455;51.480;7.594;2023-09-19T01:00:09;10.77;;;2.13;;
25567;SDS011;13455;51.480;7.594;2023-09-19T01:02:40;10.07;;;2.30;;
25567;SDS011;13455;51.480;7.594;2023-09-19T01:05:08;10.32;;;2.28;;
25567;SDS011;13455;51.480;7.594;2023-09-19T01:07:34;10.10;;;2.35;;
25567;SDS011;13455;51.480;7.594;2023-09-19T01:10:04;10.60;;;2.23;;
25567;SDS011;13455;51.480;7.594;2023-09-19T01:15:48;11.13;;;2.47;;
25567;SDS011;13455;51.480;7.594;2023-09-19T01:24:07;11.30;;;2.47;;
25567;SDS011;13455;51.480;7.594;2023-09-19T01:29:37;11.60;;;2.42;;
25567;SDS011;13455;51.480;7.594;2023-09-19T01:32:05;10.95;;;2.45;;
25567;SDS011;13455;51.480;7.594;2023-09-19T01:37:20;14.07;;;2.50;;
25567;SDS011;13455;51.480;7.594;2023-09-19T01:39:51;9.82;;;2.30;;
25567;SDS011;13455;51.480;7.594;2023-09-19T01:47:19;11.35;;;2.33;;
25567;SDS011;13455;51.480;7.594;2023-09-19T01:50:38;13.00;;;2.40;;
25567;SDS011;13455;51.480;7.594;2023-09-19T01:53:07;10.52;;;2.30;;
25567;SDS011;13455;51.480;7.594;2023-09-19T01:55:45;13.20;;;2.20;;
25567;SDS011;13455;51.480;7.594;2023-09-19T02:01:01;11.20;;;2.30;;
25567;SDS011;13455;51.480;7.594;2023-09-19T02:03:28;11.15;;;2.25;;
25567;SDS011;13455;51.480;7.594;2023-09-19T02:05:55;11.57;;;2.35;;
25567;SDS011;13455;51.480;7.594;2023-09-19T02:08:21;10.80;;;2.20;;
25567;SDS011;13455;51.480;7.594;2023-09-19T02:10:49;12.38;;;2.40;;
25567;SDS011;13455;51.480;7.594;2023-09-19T02:13:17;11.07;;;2.28;;
25567;SDS011;13455;51.480;7.594;2023-09-19T02:15:44;9.88;;;2.20;;
25567;SDS011;13455;51.480;7.594;2023-09-19T02:18:11;9.75;;;2.22;;
25567;SDS011;13455;51.480;7.594;2023-09-19T02:20:40;13.25;;;2.40;;
25567;SDS011;13455;51.480;7.594;2023-09-19T02:23:06;11.77;;;2.22;;
25567;SDS011;13455;51.480;7.594;2023-09-19T02:25:33;9.63;;;2.20;;
25567;SDS011;13455;51.480;7.594;2023-09-19T02:27:58;11.23;;;2.40;;
25567;SDS011;13455;51.480;7.594;2023-09-19T02:30:26;11.60;;;2.50;;
25567;SDS011;13455;51.480;7.594;2023-09-19T02:32:51;12.95;;;2.50;;
25567;SDS011;13455;51.480;7.594;2023-09-19T02:35:17;10.87;;;2.43;;
25567;SDS011;13455;51.480;7.594;2023-09-19T02:37:46;9.95;;;2.35;;
25567;SDS011;13455;51.480;7.594;2023-09-19T02:40:12;10.95;;;2.47;;
25567;SDS011;13455;51.480;7.594;2023-09-19T02:42:47;10.90;;;2.45;;
25567;SDS011;13455;51.480;7.594;2023-09-19T02:45:15;10.88;;;2.33;;
25567;SDS011;13455;51.480;7.594;2023-09-19T02:47:42;12.35;;;2.42;;
25567;SDS011;13455;51.480;7.594;2023-09-19T02:50:09;11.43;;;2.42;;
25567;SDS011;13455;51.480;7.594;2023-09-19T02:52:36;11.35;;;2.00;;
25567;SDS011;13455;51.480;7.594;2023-09-19T02:55:02;11.67;;;2.40;;
25567;SDS011;13455;51.480;7.594;2023-09-19T02:57:29;10.18;;;2.45;;
25567;SDS011;13455;51.480;7.594;2023-09-19T02:59:58;10.55;;;2.10;;
25567;SDS011;13455;51.480;7.594;2023-09-19T03:02:26;11.63;;;2.70;;
25567;SDS011;13455;51.480;7.594;2023-09-19T03:04:53;9.00;;;2.30;;
25567;SDS011;13455;51.480;7.594;2023-09-19T03:07:19;12.05;;;2.42;;
25567;SDS011;13455;51.480;7.594;2023-09-19T03:09:45;10.60;;;2.40;;
25567;SDS011;13455;51.480;7.594;2023-09-19T03:12:10;13.52;;;2.60;;
25567;SDS011;13455;51.480;7.594;2023-09-19T03:14:36;11.95;;;2.22;;
25567;SDS011;13455;51.480;7.594;2023-09-19T03:17:02;11.00;;;2.45;;
25567;SDS011;13455;51.480;7.594;2023-09-19T03:19:30;10.57;;;2.40;;
25567;SDS011;13455;51.480;7.594;2023-09-19T03:21:58;10.75;;;2.42;;
25567;SDS011;13455;51.480;7.594;2023-09-19T03:24:24;14.63;;;2.67;;
25567;SDS011;13455;51.480;7.594;2023-09-19T03:26:50;11.50;;;2.47;;
25567;SDS011;13455;51.480;7.594;2023-09-19T03:29:16;10.87;;;2.60;;
25567;SDS011;13455;51.480;7.594;2023-09-19T03:31:42;13.93;;;2.53;;
25567;SDS011;13455;51.480;7.594;2023-09-19T03:34:08;11.93;;;2.30;;
25567;SDS011;13455;51.480;7.594;2023-09-19T03:36:34;12.05;;;2.40;;
25567;SDS011;13455;51.480;7.594;2023-09-19T03:39:00;12.70;;;2.45;;
25567;SDS011;13455;51.480;7.594;2023-09-19T03:41:26;12.73;;;2.30;;
25567;SDS011;13455;51.480;7.594;2023-09-19T03:43:52;10.98;;;2.30;;
25567;SDS011;13455;51.480;7.594;2023-09-19T03:46:18;10.90;;;2.78;;
25567;SDS011;13455;51.480;7.594;2023-09-19T03:48:43;12.32;;;2.25;;
25567;SDS011;13455;51.480;7.594;2023-09-19T03:51:09;13.23;;;2.40;;
25567;SDS011;13455;51.480;7.594;2023-09-19T03:53:35;12.88;;;2.20;;
25567;SDS011;13455;51.480;7.594;2023-09-19T03:56:01;11.00;;;2.15;;
25567;SDS011;13455;51.480;7.594;2023-09-19T03:58:27;11.73;;;2.27;;
25567;SDS011;13455;51.480;7.594;2023-09-19T04:00:56;11.13;;;2.50;;
25567;SDS011;13455;51.480;7.594;2023-09-19T04:03:23;13.43;;;2.40;;
25567;SDS011;13455;51.480;7.594;2023-09-19T04:05:50;12.33;;;2.17;;
25567;SDS011;13455;51.480;7.594;2023-09-19T04:08:15;10.63;;;2.20;;
25567;SDS011;13455;51.480;7.594;2023-09-19T04:10:42;12.27;;;2.35;;
25567;SDS011;13455;51.480;7.594;2023-09-19T04:13:11;11.88;;;2.30;;
25567;SDS011;13455;51.480;7.594;2023-09-19T04:15:36;14.68;;;2.75;;
25567;SDS011;13455;51.480;7.594;2023-09-19T04:18:02;11.55;;;2.40;;
25567;SDS011;13455;51.480;7.594;2023-09-19T04:20:28;10.27;;;2.30;;
25567;SDS011;13455;51.480;7.594;2023-09-19T04:22:54;11.43;;;2.50;;
25567;SDS011;13455;51.480;7.594;2023-09-19T04:25:20;12.57;;;2.60;;
25567;SDS011;13455;51.480;7.594;2023-09-19T04:27:46;11.88;;;2.22;;
25567;SDS011;13455;51.480;7.594;2023-09-19T04:30:12;13.07;;;2.28;;
25567;SDS011;13455;51.480;7.594;2023-09-19T04:32:39;12.07;;;2.22;;
25567;SDS011;13455;51.480;7.594;2023-09-19T04:35:08;11.02;;;2.42;;
25567;SDS011;13455;51.480;7.594;2023-09-19T04:37:38;12.10;;;2.30;;
25567;SDS011;13455;51.480;7.594;2023-09-19T04:40:08;12.35;;;2.05;;
25567;SDS011;13455;51.480;7.594;2023-09-19T04:42:38;11.38;;;2.22;;
25567;SDS011;13455;51.480;7.594;2023-09-19T04:45:04;13.13;;;2.40;;
25567;SDS011;13455;51.480;7.594;2023-09-19T04:47:31;11.73;;;2.50;;
25567;SDS011;13455;51.480;7.594;2023-09-19T04:49:56;12.32;;;2.20;;
25567;SDS011;13455;51.480;7.594;2023-09-19T04:52:24;12.05;;;2.35;;
25567;SDS011;13455;51.480;7.594;2023-09-19T04:54:49;11.18;;;2.30;;
25567;SDS011;13455;51.480;7.594;2023-09-19T04:57:15;11.93;;;2.20;;
25567;SDS011;13455;51.480;7.594;2023-09-19T04:59:41;13.30;;;2.57;;
25567;SDS011;13455;51.480;7.594;2023-09-19T05:02:06;11.37;;;2.30;;
25567;SDS011;13455;51.480;7.594;2023-09-19T05:04:37;11.52;;;2.30;;
25567;SDS011;13455;51.480;7.594;2023-09-19T05:07:03;11.48;;;2.42;;
25567;SDS011;13455;51.480;7.594;2023-09-19T05:09:29;11.35;;;2.30;;
25567;SDS011;13455;51.480;7.594;2023-09-19T05:11:55;13.23;;;2.50;;
25567;SDS011;13455;51.480;7.594;2023-09-19T05:14:21;11.80;;;2.53;;
25567;SDS011;13455;51.480;7.594;2023-09-19T05:16:47;12.43;;;2.67;;
25567;SDS011;13455;51.480;7.594;2023-09-19T05:19:13;10.10;;;2.50;;
25567;SDS011;13455;51.480;7.594;2023-09-19T05:21:39;13.65;;;2.67;;
25567;SDS011;13455;51.480;7.594;2023-09-19T05:24:05;13.10;;;2.67;;
25567;SDS011;13455;51.480;7.594;2023-09-19T05:26:31;11.63;;;2.50;;
25567;SDS011;13455;51.480;7.594;2023-09-19T05:28:57;13.55;;;2.50;;
25567;SDS011;13455;51.480;7.594;2023-09-19T05:31:23;11.38;;;2.30;;
25567;SDS011;13455;51.480;7.594;2023-09-19T05:33:50;13.73;;;2.50;;
25567;SDS011;13455;51.480;7.594;2023-09-19T05:36:17;12.77;;;2.47;;
25567;SDS011;13455;51.480;7.594;2023-09-19T05:38:42;12.07;;;2.50;;
25567;SDS011;13455;51.480;7.594;2023-09-19T05:41:09;11.88;;;2.30;;
25567;SDS011;13455;51.480;7.594;2023-09-19T05:43:38;10.85;;;2.47;;
25567;SDS011;13455;51.480;7.594;2023-09-19T05:46:05;14.23;;;2.53;;
25567;SDS011;13455;51.480;7.594;2023-09-19T05:48:33;16.55;;;2.70;;
25567;SDS011;13455;51.480;7.594;2023-09-19T05:50:59;11.77;;;2.50;;
25567;SDS011;13455;51.480;7.594;2023-09-19T05:53:26;13.30;;;2.80;;
25567;SDS011;13455;51.480;7.594;2023-09-19T05:55:53;11.30;;;2.40;;
25567;SDS011;13455;51.480;7.594;2023-09-19T05:58:20;11.30;;;2.42;;
25567;SDS011;13455;51.480;7.594;2023-09-19T06:00:46;9.77;;;2.40;;
25567;SDS011;13455;51.480;7.594;2023-09-19T06:03:13;13.70;;;2.55;;
25567;SDS011;13455;51.480;7.594;2023-09-19T06:05:39;12.70;;;2.42;;
25567;SDS011;13455;51.480;7.594;2023-09-19T06:08:08;12.05;;;2.70;;
25567;SDS011;13455;51.480;7.594;2023-09-19T06:10:34;10.05;;;2.45;;
25567;SDS011;13455;51.480;7.594;2023-09-19T06:13:03;14.82;;;2.75;;
25567;SDS011;13455;51.480;7.594;2023-09-19T06:15:30;11.60;;;2.50;;
25567;SDS011;13455;51.480;7.594;2023-09-19T06:17:58;12.27;;;2.38;;
25567;SDS011;13455;51.480;7.594;2023-09-19T06:20:24;11.32;;;2.53;;
25567;SDS011;13455;51.480;7.594;2023-09-19T06:22:51;11.77;;;2.33;;
25567;SDS011;13455;51.480;7.594;2023-09-19T06:25:17;12.55;;;2.60;;
25567;SDS011;13455;51.480;7.594;2023-09-19T06:27:47;13.00;;;2.93;;
25567;SDS011;13455;51.480;7.594;2023-09-19T06:30:13;12.07;;;2.35;;
25567;SDS011;13455;51.480;7.594;2023-09-19T06:32:40;9.82;;;2.35;;
25567;SDS011;13455;51.480;7.594;2023-09-19T06:35:09;11.77;;;2.45;;
25567;SDS011;13455;51.480;7.594;2023-09-19T06:37:38;13.52;;;2.45;;
25567;SDS011;13455;51.480;7.594;2023-09-19T06:40:12;15.35;;;2.65;;
25567;SDS011;13455;51.480;7.594;2023-09-19T06:43:12;14.48;;;2.78;;
25567;SDS011;13455;51.480;7.594;2023-09-19T06:45:31;13.87;;;2.67;;
25567;SDS011;13455;51.480;7.594;2023-09-19T06:47:57;11.48;;;2.58;;
25567;SDS011;13455;51.480;7.594;2023-09-19T06:50:25;14.25;;;2.78;;
25567;SDS011;13455;51.480;7.594;2023-09-19T06:52:52;15.07;;;2.63;;
25567;SDS011;13455;51.480;7.594;2023-09-19T06:55:20;13.52;;;2.50;;
25567;SDS011;13455;51.480;7.594;2023-09-19T06:57:48;14.97;;;2.67;;
25567;SDS011;13455;51.480;7.594;2023-09-19T07:00:14;11.67;;;2.63;;
25567;SDS011;13455;51.480;7.594;2023-09-19T07:02:54;11.97;;;2.40;;
25567;SDS011;13455;51.480;7.594;2023-09-19T07:05:21;10.77;;;2.70;;
25567;SDS011;13455;51.480;7.594;2023-09-19T07:07:46;11.30;;;2.70;;
25567;SDS011;13455;51.480;7.594;2023-09-19T07:10:12;13.57;;;2.47;;
25567;SDS011;13455;51.480;7.594;2023-09-19T07:12:39;11.18;;;2.47;;
25567;SDS011;13455;51.480;7.594;2023-09-19T07:15:06;12.35;;;2.60;;
25567;SDS011;13455;51.480;7.594;2023-09-19T07:17:32;11.88;;;2.53;;
25567;SDS011;13455;51.480;7.594;2023-09-19T07:19:58;11.85;;;2.22;;
25567;SDS011;13455;51.480;7.594;2023-09-19T07:22:24;11.57;;;2.30;;
25567;SDS011;13455;51.480;7.594;2023-09-19T07:24:51;10.82;;;2.47;;
25567;SDS011;13455;51.480;7.594;2023-09-19T07:27:17;12.30;;;2.55;;
25567;SDS011;13455;51.480;7.594;2023-09-19T07:29:43;11.93;;;2.75;;
25567;SDS011;13455;51.480;7.594;2023-09-19T07:32:09;13.38;;;2.92;;
25567;SDS011;13455;51.480;7.594;2023-09-19T07:34:36;14.38;;;2.88;;
25567;SDS011;13455;51.480;7.594;2023-09-19T07:37:05;13.80;;;2.75;;
25567;SDS011;13455;51.480;7.594;2023-09-19T07:39:32;13.15;;;2.72;;
25567;SDS011;13455;51.480;7.594;2023-09-19T07:41:58;14.27;;;2.85;;
25567;SDS011;13455;51.480;7.594;2023-09-19T07:44:24;12.35;;;2.80;;
25567;SDS011;13455;51.480;7.594;2023-09-19T07:46:50;12.80;;;2.60;;
25567;SDS011;13455;51.480;7.594;2023-09-19T07:49:17;14.35;;;2.92;;
25567;SDS011;13455;51.480;7.594;2023-09-19T07:51:43;12.40;;;2.70;;
25567;SDS011;13455;51.480;7.594;2023-09-19T07:54:11;12.93;;;2.30;;
25567;SDS011;13455;51.480;7.594;2023-09-19T07:56:37;14.80;;;2.67;;
25567;SDS011;13455;51.480;7.594;2023-09-19T07:59:03;15.57;;;2.80;;
25567;SDS011;13455;51.480;7.594;2023-09-19T08:01:28;12.03;;;2.60;;
25567;SDS011;13455;51.480;7.594;2023-09-19T08:03:54;12.18;;;2.65;;
25567;SDS011;13455;51.480;7.594;2023-09-19T08:06:20;13.47;;;2.60;;
25567;SDS011;13455;51.480;7.594;2023-09-19T08:08:46;13.27;;;2.72;;
25567;SDS011;13455;51.480;7.594;2023-09-19T08:11:12;14.70;;;2.70;;
25567;SDS011;13455;51.480;7.594;2023-09-19T08:13:38;13.20;;;2.80;;
25567;SDS011;13455;51.480;7.594;2023-09-19T08:16:12;14.55;;;2.80;;
25567;SDS011;13455;51.480;7.594;2023-09-19T08:18:40;13.95;;;3.13;;
25567;SDS011;13455;51.480;7.594;2023-09-19T08:21:06;15.67;;;2.80;;
25567;SDS011;13455;51.480;7.594;2023-09-19T08:23:35;13.88;;;2.90;;
25567;SDS011;13455;51.480;7.594;2023-09-19T08:26:01;15.48;;;3.10;;
25567;SDS011;13455;51.480;7.594;2023-09-19T08:28:31;13.43;;;2.70;;
25567;SDS011;13455;51.480;7.594;2023-09-19T08:31:01;12.15;;;2.67;;
25567;SDS011;13455;51.480;7.594;2023-09-19T08:33:34;10.88;;;2.67;;
25567;SDS011;13455;51.480;7.594;2023-09-19T08:36:00;17.60;;;2.95;;
25567;SDS011;13455;51.480;7.594;2023-09-19T08:38:29;16.75;;;2.90;;
25567;SDS011;13455;51.480;7.594;2023-09-19T08:40:59;13.63;;;3.03;;
25567;SDS011;13455;51.480;7.594;2023-09-19T08:43:26;14.20;;;2.60;;
25567;SDS011;13455;51.480;7.594;2023-09-19T08:45:58;13.40;;;2.70;;
25567;SDS011;13455;51.480;7.594;2023-09-19T08:48:27;11.30;;;2.80;;
25567;SDS011;13455;51.480;7.594;2023-09-19T08:56:38;13.75;;;3.00;;
25567;SDS011;13455;51.480;7.594;2023-09-19T08:59:05;11.53;;;2.47;;
25567;SDS011;13455;51.480;7.594;2023-09-19T09:01:36;11.63;;;2.65;;
25567;SDS011;13455;51.480;7.594;2023-09-19T09:04:04;15.63;;;3.00;;
25567;SDS011;13455;51.480;7.594;2023-09-19T09:06:34;12.50;;;2.90;;
25567;SDS011;13455;51.480;7.594;2023-09-19T09:09:01;13.13;;;2.90;;
25567;SDS011;13455;51.480;7.594;2023-09-19T09:11:28;10.77;;;2.50;;
25567;SDS011;13455;51.480;7.594;2023-09-19T09:13:54;11.60;;;2.83;;
25567;SDS011;13455;51.480;7.594;2023-09-19T09:16:20;12.83;;;2.80;;
25567;SDS011;13455;51.480;7.594;2023-09-19T09:18:45;10.97;;;2.50;;
25567;SDS011;13455;51.480;7.594;2023-09-19T09:21:17;12.75;;;2.95;;
25567;SDS011;13455;51.480;7.594;2023-09-19T09:23:43;13.02;;;2.65;;
25567;SDS011;13455;51.480;7.594;2023-09-19T09:26:08;10.63;;;2.53;;
25567;SDS011;13455;51.480;7.594;2023-09-19T09:28:34;12.20;;;2.50;;
25567;SDS011;13455;51.480;7.594;2023-09-19T09:31:02;12.23;;;2.60;;
25567;SDS011;13455;51.480;7.594;2023-09-19T09:33:32;9.32;;;2.40;;
25567;SDS011;13455;51.480;7.594;2023-09-19T09:35:59;17.67;;;2.80;;
25567;SDS011;13455;51.480;7.594;2023-09-19T09:38:28;11.35;;;2.50;;
25567;SDS011;13455;51.480;7.594;2023-09-19T09:40:58;10.97;;;2.60;;
25567;SDS011;13455;51.480;7.594;2023-09-19T09:43:32;12.57;;;2.50;;
25567;SDS011;13455;51.480;7.594;2023-09-19T09:48:44;11.50;;;2.53;;
25567;SDS011;13455;51.480;7.594;2023-09-19T09:54:22;9.98;;;2.30;;
25567;SDS011;13455;51.480;7.594;2023-09-19T09:56:56;9.52;;;2.13;;
25567;SDS011;13455;51.480;7.594;2023-09-19T10:02:24;9.90;;;2.50;;
25567;SDS011;13455;51.480;7.594;2023-09-19T10:04:57;8.70;;;2.38;;
25567;SDS011;13455;51.480;7.594;2023-09-19T10:07:24;9.10;;;2.35;;
25567;SDS011;13455;51.480;7.594;2023-09-19T10:09:53;10.98;;;2.30;;
25567;SDS011;13455;51.480;7.594;2023-09-19T10:12:24;13.13;;;2.60;;
25567;SDS011;13455;51.480;7.594;2023-09-19T10:14:53;12.20;;;2.80;;
25567;SDS011;13455;51.480;7.594;2023-09-19T10:17:24;10.05;;;2.42;;
25567;SDS011;13455;51.480;7.594;2023-09-19T10:19:54;8.65;;;2.28;;
25567;SDS011;13455;51.480;7.594;2023-09-19T10:22:24;10.00;;;2.30;;
25567;SDS011;13455;51.480;7.594;2023-09-19T10:24:53;9.10;;;2.47;;
25567;SDS011;13455;51.480;7.594;2023-09-19T10:27:20;9.52;;;2.40;;
25567;SDS011;13455;51.480;7.594;2023-09-19T10:29:48;10.40;;;2.60;;
25567;SDS011;13455;51.480;7.594;2023-09-19T10:32:19;11.32;;;2.30;;
25567;SDS011;13455;51.480;7.594;2023-09-19T10:34:48;11.35;;;2.13;;
25567;SDS011;13455;51.480;7.594;2023-09-19T10:37:15;11.75;;;2.55;;
25567;SDS011;13455;51.480;7.594;2023-09-19T10:39:46;10.18;;;2.78;;
25567;SDS011;13455;51.480;7.594;2023-09-19T10:42:14;9.13;;;2.30;;
25567;SDS011;13455;51.480;7.594;2023-09-19T10:44:46;10.55;;;2.10;;
25567;SDS011;13455;51.480;7.594;2023-09-19T10:47:14;8.65;;;2.30;;
25567;SDS011;13455;51.480;7.594;2023-09-19T10:49:44;8.13;;;2.10;;
25567;SDS011;13455;51.480;7.594;2023-09-19T10:52:17;7.70;;;2.10;;
25567;SDS011;13455;51.480;7.594;2023-09-19T10:54:48;8.50;;;2.13;;
25567;SDS011;13455;51.480;7.594;2023-09-19T10:57:19;7.10;;;2.22;;
25567;SDS011;13455;51.480;7.594;2023-09-19T11:00:22;9.43;;;2.40;;
25567;SDS011;13455;51.480;7.594;2023-09-19T11:06:03;9.98;;;2.40;;
25567;SDS011;13455;51.480;7.594;2023-09-19T11:09:01;9.20;;;2.30;;
25567;SDS011;13455;51.480;7.594;2023-09-19T11:22:21;10.23;;;2.20;;
25567;SDS011;13455;51.480;7.594;2023-09-19T11:24:47;6.30;;;2.10;;
25567;SDS011;13455;51.480;7.594;2023-09-19T11:27:13;7.47;;;2.08;;
25567;SDS011;13455;51.480;7.594;2023-09-19T11:29:42;9.88;;;2.17;;
25567;SDS011;13455;51.480;7.594;2023-09-19T11:32:08;9.60;;;2.35;;
25567;SDS011;13455;51.480;7.594;2023-09-19T11:34:41;8.03;;;1.83;;
25567;SDS011;13455;51.480;7.594;2023-09-19T11:39:38;6.53;;;2.20;;
25567;SDS011;13455;51.480;7.594;2023-09-19T11:48:14;9.55;;;2.20;;
25567;SDS011;13455;51.480;7.594;2023-09-19T11:50:41;8.13;;;2.35;;
25567;SDS011;13455;51.480;7.594;2023-09-19T11:53:09;6.75;;;1.80;;
25567;SDS011;13455;51.480;7.594;2023-09-19T11:55:36;7.85;;;2.10;;
25567;SDS011;13455;51.480;7.594;2023-09-19T11:58:03;7.15;;;1.98;;
25567;SDS011;13455;51.480;7.594;2023-09-19T12:00:29;6.30;;;2.00;;
25567;SDS011;13455;51.480;7.594;2023-09-19T12:02:56;7.03;;;1.80;;
25567;SDS011;13455;51.480;7.594;2023-09-19T12:05:32;5.60;;;1.70;;
25567;SDS011;13455;51.480;7.594;2023-09-19T12:07:58;6.72;;;1.90;;
25567;SDS011;13455;51.480;7.594;2023-09-19T12:10:24;8.23;;;1.80;;
25567;SDS011;13455;51.480;7.594;2023-09-19T12:12:50;7.83;;;1.90;;
25567;SDS011;13455;51.480;7.594;2023-09-19T12:15:24;6.65;;;1.70;;
25567;SDS011;13455;51.480;7.594;2023-09-19T12:17:53;7.05;;;1.90;;
25567;SDS011;13455;51.480;7.594;2023-09-19T12:20:19;7.17;;;1.80;;
25567;SDS011;13455;51.480;7.594;2023-09-19T12:22:46;8.18;;;1.83;;
25567;SDS011;13455;51.480;7.594;2023-09-19T12:25:14;8.47;;;1.70;;
25567;SDS011;13455;51.480;7.594;2023-09-19T12:27:45;4.88;;;1.70;;
25567;SDS011;13455;51.480;7.594;2023-09-19T12:30:18;5.43;;;1.73;;
25567;SDS011;13455;51.480;7.594;2023-09-19T12:32:44;5.35;;;1.90;;
25567;SDS011;13455;51.480;7.594;2023-09-19T12:35:26;6.78;;;1.90;;
25567;SDS011;13455;51.480;7.594;2023-09-19T12:37:53;5.78;;;1.77;;
25567;SDS011;13455;51.480;7.594;2023-09-19T12:40:20;5.07;;;1.80;;
25567;SDS011;13455;51.480;7.594;2023-09-19T12:42:48;8.77;;;2.20;;
25567;SDS011;13455;51.480;7.594;2023-09-19T12:45:17;5.90;;;1.73;;
25567;SDS011;13455;51.480;7.594;2023-09-19T12:50:28;7.40;;;1.80;;
25567;SDS011;13455;51.480;7.594;2023-09-19T12:52:55;6.38;;;1.85;;
25567;SDS011;13455;51.480;7.594;2023-09-19T12:55:28;5.53;;;1.67;;
25567;SDS011;13455;51.480;7.594;2023-09-19T12:58:13;7.70;;;2.00;;
25567;SDS011;13455;51.480;7.594;2023-09-19T13:00:44;6.68;;;1.75;;
25567;SDS011;13455;51.480;7.594;2023-09-19T13:05:48;6.15;;;1.77;;
25567;SDS011;13455;51.480;7.594;2023-09-19T13:08:21;6.32;;;1.80;;
25567;SDS011;13455;51.480;7.594;2023-09-19T13:11:10;6.00;;;1.90;;
25567;SDS011;13455;51.480;7.594;2023-09-19T13:14:13;4.97;;;1.70;;
25567;SDS011;13455;51.480;7.594;2023-09-19T13:25:23;5.25;;;1.50;;
25567;SDS011;13455;51.480;7.594;2023-09-19T13:30:19;6.38;;;1.90;;
25567;SDS011;13455;51.480;7.594;2023-09-19T13:32:46;8.07;;;1.83;;
25567;SDS011;13455;51.480;7.594;2023-09-19T13:35:13;5.40;;;1.70;;
25567;SDS011;13455;51.480;7.594;2023-09-19T13:37:40;3.97;;;1.50;;
25567;SDS011;13455;51.480;7.594;2023-09-19T13:40:11;6.32;;;1.63;;
25567;SDS011;13455;51.480;7.594;2023-09-19T13:42:37;4.43;;;1.63;;
25567;SDS011;13455;51.480;7.594;2023-09-19T13:45:03;6.63;;;1.80;;
25567;SDS011;13455;51.480;7.594;2023-09-19T13:47:30;3.40;;;1.42;;
25567;SDS011;13455;51.480;7.594;2023-09-19T13:49:57;5.60;;;1.60;;
25567;SDS011;13455;51.480;7.594;2023-09-19T13:52:23;5.13;;;1.40;;
25567;SDS011;13455;51.480;7.594;2023-09-19T13:54:53;4.07;;;1.20;;
25567;SDS011;13455;51.480;7.594;2023-09-19T13:57:19;4.03;;;1.30;;
25567;SDS011;13455;51.480;7.594;2023-09-19T13:59:44;4.97;;;1.23;;
25567;SDS011;13455;51.480;7.594;2023-09-19T14:02:10;4.90;;;1.33;;
25567;SDS011;13455;51.480;7.594;2023-09-19T14:04:36;4.90;;;1.23;;
25567;SDS011;13455;51.480;7.594;2023-09-19T14:07:02;5.27;;;1.50;;
25567;SDS011;13455;51.480;7.594;2023-09-19T14:09:28;5.18;;;1.25;;
25567;SDS011;13455;51.480;7.594;2023-09-19T14:11:54;4.73;;;1.50;;
25567;SDS011;13455;51.480;7.594;2023-09-19T14:14:19;4.70;;;1.30;;
25567;SDS011;13455;51.480;7.594;2023-09-19T14:16:46;4.32;;;1.30;;
25567;SDS011;13455;51.480;7.594;2023-09-19T14:19:13;4.38;;;1.60;;
25567;SDS011;13455;51.480;7.594;2023-09-19T14:21:41;4.65;;;1.40;;
25567;SDS011;13455;51.480;7.594;2023-09-19T14:24:07;4.00;;;1.38;;
25567;SDS011;13455;51.480;7.594;2023-09-19T14:26:40;3.77;;;1.30;;
25567;SDS011;13455;51.480;7.594;2023-09-19T14:29:06;3.88;;;1.35;;
25567;SDS011;13455;51.480;7.594;2023-09-19T14:31:37;4.93;;;1.30;;
25567;SDS011;13455;51.480;7.594;2023-09-19T14:34:05;5.22;;;1.40;;
25567;SDS011;13455;51.480;7.594;2023-09-19T14:36:31;3.53;;;1.15;;
25567;SDS011;13455;51.480;7.594;2023-09-19T14:38:58;5.13;;;1.30;;
25567;SDS011;13455;51.480;7.594;2023-09-19T14:41:24;4.20;;;1.20;;
25567;SDS011;13455;51.480;7.594;2023-09-19T14:43:53;4.47;;;1.20;;
25567;SDS011;13455;51.480;7.594;2023-09-19T14:46:20;6.53;;;1.40;;
25567;SDS011;13455;51.480;7.594;2023-09-19T14:48:46;5.80;;;1.30;;
25567;SDS011;13455;51.480;7.594;2023-09-19T14:51:12;4.70;;;1.10;;
25567;SDS011;13455;51.480;7.594;2023-09-19T14:53:39;4.13;;;1.00;;
25567;SDS011;13455;51.480;7.594;2023-09-19T14:56:06;3.50;;;0.90;;
25567;SDS011;13455;51.480;7.594;2023-09-19T14:58:33;3.70;;;1.00;;
25567;SDS011;13455;51.480;7.594;2023-09-19T15:01:08;3.33;;;1.10;;
25567;SDS011;13455;51.480;7.594;2023-09-19T15:03:37;5.05;;;1.00;;
25567;SDS011;13455;51.480;7.594;2023-09-19T15:06:07;3.08;;;0.90;;
25567;SDS011;13455;51.480;7.594;2023-09-19T15:08:36;4.35;;;1.00;;
25567;SDS011;13455;51.480;7.594;2023-09-19T15:11:12;3.30;;;0.93;;
25567;SDS011;13455;51.480;7.594;2023-09-19T15:13:38;4.40;;;0.93;;
25567;SDS011;13455;51.480;7.594;2023-09-19T15:16:05;4.10;;;0.80;;
25567;SDS011;13455;51.480;7.594;2023-09-19T15:18:38;4.07;;;1.00;;
25567;SDS011;13455;51.480;7.594;2023-09-19T15:21:06;5.00;;;1.17;;
25567;SDS011;13455;51.480;7.594;2023-09-19T15:23:33;5.32;;;0.90;;
25567;SDS011;13455;51.480;7.594;2023-09-19T15:26:02;3.53;;;0.90;;
25567;SDS011;13455;51.480;7.594;2023-09-19T15:28:28;4.30;;;0.90;;
25567;SDS011;13455;51.480;7.594;2023-09-19T15:33:28;4.60;;;0.80;;
25567;SDS011;13455;51.480;7.594;2023-09-19T15:36:12;3.63;;;0.80;;
25567;SDS011;13455;51.480;7.594;2023-09-19T15:41:24;4.20;;;0.90;;
25567;SDS011;13455;51.480;7.594;2023-09-19T15:43:50;4.68;;;0.80;;
25567;SDS011;13455;51.480;7.594;2023-09-19T15:46:16;4.57;;;0.95;;
25567;SDS011;13455;51.480;7.594;2023-09-19T15:48:42;4.85;;;1.10;;
25567;SDS011;13455;51.480;7.594;2023-09-19T15:51:08;4.88;;;0.90;;
25567;SDS011;13455;51.480;7.594;2023-09-19T15:53:41;4.03;;;0.90;;
25567;SDS011;13455;51.480;7.594;2023-09-19T15:56:09;4.75;;;0.95;;
25567;SDS011;13455;51.480;7.594;2023-09-19T15:58:35;6.57;;;1.20;;
25567;SDS011;13455;51.480;7.594;2023-09-19T16:01:07;4.53;;;1.02;;
25567;SDS011;13455;51.480;7.594;2023-09-19T16:03:34;6.30;;;0.90;;
25567;SDS011;13455;51.480;7.594;2023-09-19T16:06:10;4.05;;;0.90;;
25567;SDS011;13455;51.480;7.594;2023-09-19T16:08:43;4.13;;;1.03;;